Terminal Aerodrome Forecast
Issued by NWS

Home | Current Version | Previous Version | Graphics & Text | Print | Product List | Glossary On
Versions: 1 2 3 4 5 6 7 8 9 10 11 12 13 14 15 16 17 18
000
FTUS43 KMPX 062324
TAFAXN
TAF
KAXN 062324Z 0700/0724 27022G32KT 1SM -SN BLSN VV010
     FM070300 28021G28KT 2SM -SN BLSN OVC015
     FM070800 28018G26KT 5SM -SN BR OVC025
     FM071700 29022G30KT 1/2SM SN BLSN FZFG OVC010=

USA.gov is the U.S. government's official web portal to all federal, state and local government web resources and services.